createdAt,value
2023-05-13T00:00:23.198Z,6.27
2023-05-13T00:02:51.075Z,6.20
2023-05-13T00:05:18.911Z,5.87
2023-05-13T00:07:46.605Z,6.27
2023-05-13T00:10:14.199Z,5.63
2023-05-13T00:12:41.840Z,6.80
2023-05-13T00:15:11.817Z,6.13
2023-05-13T00:17:39.466Z,6.40
2023-05-13T00:20:08.678Z,6.57
2023-05-13T00:22:36.371Z,5.97
2023-05-13T00:25:04.144Z,6.13
2023-05-13T00:27:32.725Z,5.80
2023-05-13T00:30:00.765Z,6.50
2023-05-13T00:32:29.814Z,6.73
2023-05-13T00:34:57.616Z,6.67
2023-05-13T00:37:25.273Z,6.00
2023-05-13T00:39:53.020Z,7.30
2023-05-13T00:42:20.625Z,6.57
2023-05-13T00:44:48.270Z,5.87
2023-05-13T00:47:16.072Z,6.20
2023-05-13T00:49:45.394Z,5.90
2023-05-13T00:52:13.371Z,6.10
2023-05-13T00:54:41.048Z,6.33
2023-05-13T00:57:08.865Z,6.13
2023-05-13T00:59:36.570Z,6.70
2023-05-13T01:02:10.595Z,6.73
2023-05-13T01:04:45.430Z,6.37
2023-05-13T01:07:22.315Z,6.37
2023-05-13T01:10:02.493Z,6.80
2023-05-13T01:12:33.595Z,6.87
2023-05-13T01:15:06.783Z,6.33
2023-05-13T01:17:38.813Z,6.63
2023-05-13T01:20:09.305Z,7.03
2023-05-13T01:22:38.306Z,7.00
2023-05-13T01:25:06.389Z,6.57
2023-05-13T01:27:34.039Z,6.70
2023-05-13T01:30:01.897Z,7.23
2023-05-13T01:32:29.800Z,6.90
2023-05-13T01:34:57.836Z,6.67
2023-05-13T01:37:25.885Z,6.57
2023-05-13T01:39:55.137Z,6.90
2023-05-13T01:42:24.212Z,7.30
2023-05-13T01:44:52.617Z,7.07
2023-05-13T01:47:20.221Z,6.37
2023-05-13T01:49:47.947Z,7.17
2023-05-13T01:52:15.576Z,6.40
2023-05-13T01:54:43.185Z,6.97
2023-05-13T01:57:12.280Z,6.20
2023-05-13T01:59:40.041Z,6.63
2023-05-13T02:02:07.788Z,6.43
2023-05-13T02:04:35.591Z,6.97
2023-05-13T02:07:03.210Z,6.50
2023-05-13T02:09:30.890Z,6.83
2023-05-13T02:11:58.492Z,6.43
2023-05-13T02:14:27.467Z,6.63
2023-05-13T02:16:55.147Z,6.53
2023-05-13T02:19:22.799Z,6.60
2023-05-13T02:21:50.452Z,6.70
2023-05-13T02:24:18.164Z,6.60
2023-05-13T02:26:46.150Z,5.70
2023-05-13T02:29:15.004Z,6.80
2023-05-13T02:31:44.072Z,6.47
2023-05-13T02:34:11.756Z,6.60
2023-05-13T02:36:39.575Z,7.00
2023-05-13T02:39:07.277Z,6.43
2023-05-13T02:41:35.830Z,6.97
2023-05-13T02:44:03.431Z,6.47
2023-05-13T02:46:31.180Z,6.50
2023-05-13T02:49:00.414Z,6.90
2023-05-13T02:51:28.021Z,7.20
2023-05-13T02:53:55.641Z,7.03
2023-05-13T02:56:23.245Z,6.13
2023-05-13T02:58:50.870Z,6.80
2023-05-13T03:01:18.554Z,6.47
2023-05-13T03:03:46.269Z,7.47
2023-05-13T03:06:15.289Z,6.57
2023-05-13T03:08:42.883Z,6.87
2023-05-13T03:11:10.570Z,6.67
2023-05-13T03:13:38.197Z,6.80
2023-05-13T03:16:06.244Z,6.60
2023-05-13T03:18:33.921Z,6.63
2023-05-13T03:21:01.893Z,7.53
2023-05-13T03:23:30.902Z,6.40
2023-05-13T03:25:58.630Z,6.87
2023-05-13T03:28:26.296Z,7.20
2023-05-13T03:30:53.975Z,7.40
2023-05-13T03:33:21.793Z,7.20
2023-05-13T03:35:50.000Z,7.60
2023-05-13T03:38:17.725Z,7.60
2023-05-13T03:40:47.457Z,7.47
2023-05-13T03:43:15.170Z,7.40
2023-05-13T03:45:47.546Z,7.33
2023-05-13T03:48:15.776Z,8.03
2023-05-13T03:50:43.614Z,8.50
2023-05-13T03:53:11.761Z,8.23
2023-05-13T03:55:39.403Z,8.57
2023-05-13T03:58:14.274Z,8.43
2023-05-13T04:00:43.086Z,8.03
2023-05-13T04:03:10.833Z,7.83
2023-05-13T04:05:38.569Z,7.90
2023-05-13T04:08:06.404Z,8.43
2023-05-13T04:10:34.099Z,9.40
2023-05-13T04:13:01.688Z,8.03
2023-05-13T04:15:31.711Z,8.50
2023-05-13T04:17:59.986Z,9.53
2023-05-13T04:20:29.000Z,9.47
2023-05-13T04:22:56.853Z,9.60
2023-05-13T04:25:24.436Z,9.40
2023-05-13T04:27:52.070Z,10.60
2023-05-13T04:30:20.011Z,10.73
2023-05-13T04:32:49.341Z,10.63
2023-05-13T04:35:17.871Z,10.03
2023-05-13T04:37:45.726Z,10.40
2023-05-13T04:40:13.942Z,10.73
2023-05-13T04:42:41.587Z,9.47
2023-05-13T04:45:09.883Z,10.33
2023-05-13T04:47:38.155Z,10.70
2023-05-13T04:50:08.465Z,11.37
2023-05-13T04:52:37.337Z,11.10
2023-05-13T04:55:05.528Z,9.90
2023-05-13T04:57:33.516Z,10.50
2023-05-13T05:00:01.136Z,10.37
2023-05-13T05:02:29.961Z,9.87
2023-05-13T05:04:57.733Z,10.17
2023-05-13T05:07:26.692Z,10.00
2023-05-13T05:09:54.297Z,9.30
2023-05-13T05:12:21.950Z,9.33
2023-05-13T05:14:49.563Z,9.00
2023-05-13T05:17:17.404Z,9.90
2023-05-13T05:19:44.989Z,10.00
2023-05-13T05:22:12.578Z,9.27
2023-05-13T05:24:41.524Z,8.88
2023-05-13T05:27:09.147Z,9.05
2023-05-13T05:29:37.023Z,9.13
2023-05-13T05:32:05.163Z,9.18
2023-05-13T05:34:32.967Z,9.57
2023-05-13T05:37:00.689Z,8.32
2023-05-13T05:39:28.276Z,9.48
2023-05-13T05:41:57.314Z,8.40
2023-05-13T05:44:24.982Z,8.43
2023-05-13T05:46:53.758Z,8.85
2023-05-13T05:49:21.363Z,8.48
2023-05-13T05:51:48.953Z,8.38
2023-05-13T05:54:16.561Z,8.43
2023-05-13T05:56:44.213Z,8.77
2023-05-13T05:59:13.225Z,8.43
2023-05-13T06:01:40.849Z,8.48
2023-05-13T06:04:08.602Z,7.50
2023-05-13T06:06:36.483Z,7.13
2023-05-13T06:09:04.308Z,8.65
2023-05-13T06:11:31.927Z,7.30
2023-05-13T06:13:59.580Z,8.38
2023-05-13T06:16:28.737Z,7.93
2023-05-13T06:18:56.445Z,7.63
2023-05-13T06:21:24.101Z,7.68
2023-05-13T06:23:51.700Z,7.25
2023-05-13T06:26:19.458Z,7.10
2023-05-13T06:28:47.105Z,7.28
2023-05-13T06:31:14.791Z,7.60
2023-05-13T06:33:43.775Z,7.03
2023-05-13T06:36:11.455Z,6.80
2023-05-13T06:38:39.130Z,6.35
2023-05-13T06:41:07.238Z,6.10
2023-05-13T06:43:34.933Z,7.03
2023-05-13T06:46:02.633Z,6.50
2023-05-13T06:48:30.296Z,6.20
2023-05-13T06:50:59.279Z,6.60
2023-05-13T06:53:26.951Z,6.05
2023-05-13T06:55:54.622Z,5.68
2023-05-13T06:58:22.215Z,5.80
2023-05-13T07:00:50.007Z,6.10
2023-05-13T07:03:17.679Z,6.00
2023-05-13T07:05:45.334Z,6.80
2023-05-13T07:08:17.828Z,6.30
2023-05-13T07:10:45.989Z,6.07
2023-05-13T07:13:13.664Z,6.20
2023-05-13T07:15:41.494Z,6.47
2023-05-13T07:18:09.360Z,5.65
2023-05-13T07:20:37.096Z,6.00
2023-05-13T07:23:04.778Z,6.70
2023-05-13T07:25:34.020Z,5.75
2023-05-13T07:28:01.716Z,5.45
2023-05-13T07:30:29.356Z,5.22
2023-05-13T07:32:57.209Z,5.68
2023-05-13T07:35:25.148Z,4.85
2023-05-13T07:37:52.772Z,5.25
2023-05-13T07:40:21.108Z,5.35
2023-05-13T07:42:50.475Z,5.97
2023-05-13T07:45:18.193Z,5.57
2023-05-13T07:47:45.807Z,5.13
2023-05-13T07:50:13.515Z,5.22
2023-05-13T07:52:41.277Z,5.55
2023-05-13T07:55:10.773Z,5.45
2023-05-13T07:57:38.565Z,5.47
2023-05-13T08:00:08.911Z,5.85
2023-05-13T08:02:38.904Z,5.07
2023-05-13T08:05:07.524Z,5.32
2023-05-13T08:07:35.205Z,5.60
2023-05-13T08:10:02.842Z,4.80
2023-05-13T08:12:30.464Z,5.40
2023-05-13T08:14:58.066Z,5.15
2023-05-13T08:17:27.308Z,4.75
2023-05-13T08:19:54.976Z,4.90
2023-05-13T08:22:22.778Z,4.72
2023-05-13T08:24:50.911Z,5.03
2023-05-13T08:27:18.545Z,4.90
2023-05-13T08:29:46.241Z,5.18
2023-05-13T08:32:13.999Z,4.68
2023-05-13T08:34:43.011Z,5.47
2023-05-13T08:37:10.726Z,4.72
2023-05-13T08:39:38.335Z,5.03
2023-05-13T08:42:09.532Z,5.03
2023-05-13T08:44:40.630Z,5.10
2023-05-13T08:47:17.287Z,4.80
2023-05-13T08:49:47.333Z,4.85
2023-05-13T08:52:14.972Z,4.30
2023-05-13T08:54:44.508Z,4.35
2023-05-13T08:57:12.352Z,3.85
2023-05-13T08:59:39.949Z,3.90
2023-05-13T09:02:08.068Z,4.13
2023-05-13T09:04:37.859Z,4.20
2023-05-13T09:07:07.863Z,4.00
2023-05-13T09:09:36.144Z,4.10
2023-05-13T09:12:03.866Z,4.18
2023-05-13T09:14:32.563Z,3.88
2023-05-13T09:17:02.193Z,3.95
2023-05-13T09:19:30.464Z,4.18
2023-05-13T09:21:58.194Z,4.10
2023-05-13T09:24:27.184Z,4.30
2023-05-13T09:26:54.870Z,4.05
2023-05-13T09:29:23.743Z,4.25
2023-05-13T09:31:54.160Z,3.97
2023-05-13T09:34:29.930Z,4.15
2023-05-13T09:36:59.149Z,3.85
2023-05-13T09:39:28.592Z,4.35
2023-05-13T09:41:56.445Z,4.13
2023-05-13T09:44:24.424Z,3.92
2023-05-13T09:46:53.795Z,4.20
2023-05-13T09:49:24.324Z,4.13
2023-05-13T09:51:52.030Z,4.13
2023-05-13T09:54:19.788Z,4.00
2023-05-13T09:56:49.736Z,4.38
2023-05-13T09:59:18.004Z,3.95
2023-05-13T10:01:47.809Z,3.83
2023-05-13T10:04:16.490Z,3.53
2023-05-13T10:06:46.717Z,3.60
2023-05-13T10:09:17.755Z,4.07
2023-05-13T10:11:49.432Z,4.03
2023-05-13T10:14:18.192Z,4.00
2023-05-13T10:16:47.758Z,4.28
2023-05-13T10:19:16.164Z,4.18
2023-05-13T10:21:44.658Z,4.28
2023-05-13T10:24:13.100Z,4.40
2023-05-13T10:26:41.666Z,4.22
2023-05-13T10:29:11.447Z,4.20
2023-05-13T10:31:39.697Z,4.20
2023-05-13T10:34:07.623Z,4.13
2023-05-13T10:37:04.732Z,4.57
2023-05-13T10:39:54.903Z,4.47
2023-05-13T10:42:42.741Z,4.15
2023-05-13T10:45:12.334Z,4.45
2023-05-13T10:47:40.295Z,4.20
2023-05-13T10:50:23.022Z,4.50
2023-05-13T10:52:51.162Z,4.35
2023-05-13T10:55:20.906Z,4.75
2023-05-13T10:58:06.049Z,3.53
2023-05-13T11:00:35.554Z,4.70
2023-05-13T11:03:14.738Z,3.92
2023-05-13T11:05:44.947Z,4.40
2023-05-13T11:08:12.843Z,4.13
2023-05-13T11:10:42.089Z,3.92
2023-05-13T11:13:22.794Z,4.60
2023-05-13T11:15:53.118Z,4.10
2023-05-13T11:18:21.738Z,4.15
2023-05-13T11:20:54.466Z,4.03
2023-05-13T11:23:22.638Z,3.83
2023-05-13T11:26:12.446Z,3.90
2023-05-13T11:29:00.933Z,3.92
2023-05-13T11:31:43.937Z,3.58
2023-05-13T11:34:13.979Z,4.10
2023-05-13T11:36:44.138Z,4.28
2023-05-13T11:39:14.480Z,3.70
2023-05-13T11:41:44.376Z,3.97
2023-05-13T11:44:13.402Z,3.50
2023-05-13T11:46:52.445Z,3.55
2023-05-13T11:49:38.713Z,3.25
2023-05-13T11:52:08.739Z,3.50
2023-05-13T11:54:48.376Z,3.72
2023-05-13T11:57:23.494Z,3.60
2023-05-13T11:59:52.744Z,3.38
2023-05-13T12:02:23.440Z,3.05
2023-05-13T12:04:52.228Z,3.38
2023-05-13T12:07:24.613Z,3.28
2023-05-13T12:09:53.569Z,3.22
2023-05-13T12:12:21.665Z,3.28
2023-05-13T12:14:51.105Z,3.20
2023-05-13T12:17:19.487Z,3.58
2023-05-13T12:20:11.456Z,3.28
2023-05-13T12:22:50.458Z,3.10
2023-05-13T12:25:41.397Z,3.47
2023-05-13T12:28:16.467Z,3.83
2023-05-13T12:30:45.402Z,3.58
2023-05-13T12:33:16.996Z,3.25
2023-05-13T12:35:48.268Z,3.50
2023-05-13T12:38:18.243Z,3.30
2023-05-13T12:40:46.920Z,3.35
2023-05-13T12:43:15.304Z,3.28
2023-05-13T12:45:46.880Z,3.10
2023-05-13T12:48:14.840Z,3.58
2023-05-13T12:50:44.573Z,3.17
2023-05-13T12:53:13.555Z,3.63
2023-05-13T12:55:41.236Z,3.42
2023-05-13T12:58:11.213Z,3.80
2023-05-13T13:00:39.181Z,3.65
2023-05-13T13:03:07.905Z,3.65
2023-05-13T13:05:36.025Z,3.53
2023-05-13T13:08:05.146Z,4.03
2023-05-13T13:10:34.230Z,3.60
2023-05-13T13:13:01.890Z,3.67
2023-05-13T13:15:29.651Z,3.42
2023-05-13T13:17:57.326Z,3.63
2023-05-13T13:20:25.308Z,3.35
2023-05-13T13:22:54.281Z,3.03
2023-05-13T13:25:22.163Z,3.42
2023-05-13T13:27:51.500Z,3.05
2023-05-13T13:30:19.197Z,3.15
2023-05-13T13:32:46.895Z,2.80
2023-05-13T13:35:14.537Z,3.53
2023-05-13T13:37:42.196Z,3.25
2023-05-13T13:40:10.974Z,3.42
2023-05-13T13:42:44.212Z,3.08
2023-05-13T13:45:14.593Z,3.10
2023-05-13T13:47:42.685Z,3.20
2023-05-13T13:50:11.486Z,3.05
2023-05-13T13:52:39.286Z,2.95
2023-05-13T13:55:08.145Z,3.72
2023-05-13T13:57:35.732Z,3.53
2023-05-13T14:00:03.365Z,3.47
2023-05-13T14:02:32.493Z,3.10
2023-05-13T14:05:00.212Z,3.60
2023-05-13T14:07:27.859Z,3.30
2023-05-13T14:09:55.815Z,3.10
2023-05-13T14:12:23.414Z,3.08
2023-05-13T14:14:51.033Z,2.83
2023-05-13T14:17:18.638Z,3.13
2023-05-13T14:19:51.580Z,3.70
2023-05-13T14:22:19.321Z,4.10
2023-05-13T14:24:47.020Z,3.20
2023-05-13T14:27:15.022Z,3.40
2023-05-13T14:29:42.700Z,3.13
2023-05-13T14:32:10.398Z,3.30
2023-05-13T14:34:38.040Z,3.45
2023-05-13T14:37:07.162Z,3.22
2023-05-13T14:39:35.145Z,3.42
2023-05-13T14:42:02.834Z,3.47
2023-05-13T14:44:30.538Z,3.10
2023-05-13T14:46:58.328Z,3.17
2023-05-13T14:49:26.129Z,3.20
2023-05-13T14:51:53.817Z,3.40
2023-05-13T14:54:23.204Z,3.00
2023-05-13T14:56:52.074Z,3.03
2023-05-13T14:59:19.948Z,3.00
2023-05-13T15:01:47.659Z,3.45
2023-05-13T15:04:15.322Z,3.33
2023-05-13T15:06:42.993Z,3.17
2023-05-13T15:09:10.639Z,3.20
2023-05-13T15:11:42.167Z,3.15
2023-05-13T15:14:10.661Z,3.70
2023-05-13T15:16:38.341Z,3.35
2023-05-13T15:19:08.182Z,3.08
2023-05-13T15:21:35.990Z,3.00
2023-05-13T15:24:03.608Z,3.03
2023-05-13T15:26:31.454Z,3.08
2023-05-13T15:29:00.488Z,3.28
2023-05-13T15:31:28.200Z,3.35
2023-05-13T15:33:55.950Z,3.15
2023-05-13T15:36:23.684Z,2.80
2023-05-13T15:38:51.368Z,3.17
2023-05-13T15:41:19.062Z,3.03
2023-05-13T15:43:46.789Z,3.92
2023-05-13T15:46:15.914Z,4.38
2023-05-13T15:48:43.898Z,7.28
2023-05-13T15:51:17.841Z,3.17
2023-05-13T15:53:45.509Z,3.47
2023-05-13T15:56:13.210Z,2.92
2023-05-13T15:58:40.995Z,3.30
2023-05-13T16:01:08.677Z,3.03
2023-05-13T16:03:38.645Z,4.10
2023-05-13T16:06:06.677Z,3.50
2023-05-13T16:08:34.667Z,3.17
2023-05-13T16:11:02.305Z,3.28
2023-05-13T16:13:30.041Z,3.58
2023-05-13T16:15:57.752Z,4.35
2023-05-13T16:18:25.451Z,30.48
2023-05-13T16:20:54.891Z,4.22
2023-05-13T16:23:22.496Z,3.35
2023-05-13T16:25:50.178Z,3.65
2023-05-13T16:28:17.798Z,3.22
2023-05-13T16:30:45.425Z,3.38
2023-05-13T16:33:15.028Z,3.20
2023-05-13T16:35:42.703Z,2.70
2023-05-13T16:38:12.528Z,3.03
2023-05-13T16:40:40.223Z,4.00
2023-05-13T16:43:07.873Z,5.50
2023-05-13T16:45:35.667Z,3.67
2023-05-13T16:48:03.503Z,3.38
2023-05-13T16:50:31.368Z,3.22
2023-05-13T16:52:58.963Z,3.30
2023-05-13T16:55:28.031Z,3.38
2023-05-13T16:57:55.627Z,3.20
2023-05-13T17:00:23.661Z,3.50
2023-05-13T17:02:51.565Z,3.15
2023-05-13T17:05:19.475Z,3.40
2023-05-13T17:07:47.111Z,3.22
2023-05-13T17:10:14.710Z,3.17
2023-05-13T17:12:43.654Z,3.50
2023-05-13T17:15:12.151Z,3.38
2023-05-13T17:17:39.857Z,3.60
2023-05-13T17:20:08.500Z,3.35
2023-05-13T17:22:36.128Z,3.33
2023-05-13T17:25:04.205Z,3.55
2023-05-13T17:27:31.848Z,3.25
2023-05-13T17:30:00.839Z,3.65
2023-05-13T17:32:28.536Z,3.50
2023-05-13T17:34:56.216Z,3.60
2023-05-13T17:37:25.066Z,3.38
2023-05-13T17:39:52.763Z,3.30
2023-05-13T17:42:20.391Z,3.72
2023-05-13T17:44:48.118Z,3.80
2023-05-13T17:47:17.161Z,3.50
2023-05-13T17:49:44.775Z,3.50
2023-05-13T17:52:12.479Z,3.88
2023-05-13T17:54:40.169Z,3.70
2023-05-13T17:57:09.903Z,3.67
2023-05-13T17:59:37.601Z,3.50
2023-05-13T18:02:05.460Z,3.40
2023-05-13T18:04:34.469Z,3.10
2023-05-13T18:07:02.109Z,3.08
2023-05-13T18:09:29.675Z,3.63
2023-05-13T18:11:57.276Z,3.30
2023-05-13T18:14:24.985Z,3.55
2023-05-13T18:16:52.602Z,3.58
2023-05-13T18:19:20.355Z,3.65
2023-05-13T18:21:49.527Z,3.35
2023-05-13T18:24:17.093Z,3.38
2023-05-13T18:26:44.697Z,3.60
2023-05-13T18:29:12.427Z,3.58
2023-05-13T18:31:40.113Z,3.45
2023-05-13T18:34:07.823Z,3.20
2023-05-13T18:36:35.644Z,3.55
2023-05-13T18:39:04.667Z,3.25
2023-05-13T18:41:32.300Z,3.22
2023-05-13T18:44:00.170Z,3.60
2023-05-13T18:46:27.920Z,3.50
2023-05-13T18:48:55.674Z,3.53
2023-05-13T18:51:23.336Z,3.60
2023-05-13T18:53:51.068Z,3.35
2023-05-13T18:56:20.098Z,3.35
2023-05-13T18:58:47.825Z,3.78
2023-05-13T19:01:16.338Z,3.28
2023-05-13T19:03:44.206Z,3.70
2023-05-13T19:06:11.952Z,3.00
2023-05-13T19:08:39.733Z,3.33
2023-05-13T19:11:07.337Z,3.75
2023-05-13T19:13:46.718Z,4.20
2023-05-13T19:16:15.560Z,3.67
2023-05-13T19:18:43.329Z,4.13
2023-05-13T19:21:11.002Z,4.80
2023-05-13T19:23:38.977Z,4.68
2023-05-13T19:26:06.894Z,4.43
2023-05-13T19:28:37.997Z,4.35
2023-05-13T19:31:05.939Z,4.40
2023-05-13T19:33:33.831Z,4.00
2023-05-13T19:36:01.546Z,4.03
2023-05-13T19:38:29.196Z,4.03
2023-05-13T19:40:56.827Z,3.97
2023-05-13T19:43:25.272Z,4.18
2023-05-13T19:45:55.427Z,4.10
2023-05-13T19:48:23.091Z,4.25
2023-05-13T19:50:53.309Z,4.53
2023-05-13T19:53:21.855Z,4.28
2023-05-13T19:55:49.592Z,4.40
2023-05-13T19:58:17.625Z,4.47
2023-05-13T20:00:45.249Z,4.30
2023-05-13T20:03:14.632Z,4.55
2023-05-13T20:05:42.336Z,4.80
2023-05-13T20:08:09.957Z,7.40
2023-05-13T20:10:37.601Z,5.15
2023-05-13T20:13:05.214Z,4.50
2023-05-13T20:15:33.142Z,5.18
2023-05-13T20:18:00.816Z,7.28
2023-05-13T20:20:29.796Z,6.13
2023-05-13T20:22:57.446Z,4.93
2023-05-13T20:25:25.100Z,4.55
2023-05-13T20:27:52.705Z,4.97
2023-05-13T20:30:20.919Z,4.55
2023-05-13T20:32:48.725Z,4.40
2023-05-13T20:35:16.491Z,4.53
2023-05-13T20:37:45.591Z,5.45
2023-05-13T20:40:13.724Z,4.88
2023-05-13T20:42:41.342Z,18.92
2023-05-13T20:45:09.757Z,12.65
2023-05-13T20:47:38.253Z,15.23
2023-05-13T20:50:06.795Z,11.85
2023-05-13T20:52:34.499Z,19.17
2023-05-13T20:55:03.480Z,15.93
2023-05-13T20:57:31.111Z,23.60
2023-05-13T20:59:58.707Z,14.97
2023-05-13T21:02:26.373Z,8.80
2023-05-13T21:04:54.054Z,7.70
2023-05-13T21:07:21.690Z,5.80
2023-05-13T21:09:49.301Z,5.50
2023-05-13T21:12:18.323Z,5.27
2023-05-13T21:14:45.900Z,4.77
2023-05-13T21:17:13.558Z,5.27
2023-05-13T21:19:41.207Z,4.80
2023-05-13T21:22:08.838Z,5.30
2023-05-13T21:24:36.413Z,5.40
2023-05-13T21:27:04.047Z,5.30
2023-05-13T21:29:33.103Z,5.20
2023-05-13T21:32:00.772Z,5.53
2023-05-13T21:34:28.355Z,4.83
2023-05-13T21:36:55.945Z,5.00
2023-05-13T21:39:23.601Z,5.07
2023-05-13T21:41:51.208Z,5.30
2023-05-13T21:44:18.840Z,4.87
2023-05-13T21:46:47.854Z,5.43
2023-05-13T21:49:15.470Z,5.80
2023-05-13T21:51:43.072Z,5.37
2023-05-13T21:54:10.908Z,5.47
2023-05-13T21:56:38.569Z,5.57
2023-05-13T21:59:06.225Z,5.50
2023-05-13T22:01:33.856Z,5.60
2023-05-13T22:04:02.919Z,5.47
2023-05-13T22:06:30.956Z,5.50
2023-05-13T22:08:58.689Z,5.73
2023-05-13T22:11:26.489Z,5.37
2023-05-13T22:13:54.155Z,5.67
2023-05-13T22:16:22.027Z,5.70
2023-05-13T22:18:50.863Z,5.90
2023-05-13T22:21:19.917Z,5.60
2023-05-13T22:23:47.600Z,5.80
2023-05-13T22:26:15.243Z,6.03
2023-05-13T22:28:42.845Z,5.83
2023-05-13T22:31:10.580Z,5.90
2023-05-13T22:33:38.274Z,5.67
2023-05-13T22:36:06.515Z,5.60
2023-05-13T22:38:35.502Z,5.90
2023-05-13T22:41:03.124Z,5.97
2023-05-13T22:43:30.820Z,6.30
2023-05-13T22:45:58.416Z,5.90
2023-05-13T22:48:26.717Z,6.13
2023-05-13T22:50:56.956Z,5.67
2023-05-13T22:53:25.129Z,5.40
2023-05-13T22:55:54.425Z,5.43
2023-05-13T22:58:22.453Z,6.10
2023-05-13T23:00:50.723Z,5.80
2023-05-13T23:03:18.895Z,5.93
2023-05-13T23:05:46.536Z,5.43
2023-05-13T23:08:14.104Z,5.90
2023-05-13T23:10:41.771Z,5.90
2023-05-13T23:13:10.709Z,5.40
2023-05-13T23:15:38.356Z,5.30
2023-05-13T23:18:06.242Z,6.23
2023-05-13T23:20:33.926Z,6.30
2023-05-13T23:23:01.559Z,6.07
2023-05-13T23:25:29.228Z,6.57
2023-05-13T23:27:56.865Z,6.10
2023-05-13T23:30:25.986Z,6.77
2023-05-13T23:32:53.728Z,6.60
2023-05-13T23:35:21.445Z,6.20
2023-05-13T23:37:49.096Z,6.10
2023-05-13T23:40:16.974Z,5.83
2023-05-13T23:42:44.642Z,6.37
2023-05-13T23:45:12.607Z,6.00
2023-05-13T23:47:41.618Z,6.23
2023-05-13T23:50:09.806Z,6.87
2023-05-13T23:52:37.430Z,6.07
2023-05-13T23:55:06.060Z,6.30
2023-05-13T23:57:33.691Z,6.17
